createdAt,value
2022-08-05T00:08:35.712Z,98306.63
2022-08-05T00:18:45.429Z,98303.38
2022-08-05T00:28:52.133Z,98299.09
2022-08-05T00:38:59.406Z,98284.53
2022-08-05T00:49:05.961Z,98285.56
2022-08-05T00:59:14.226Z,98284.53
2022-08-05T01:09:20.664Z,98275.34
2022-08-05T01:20:01.722Z,98273.28
2022-08-05T01:30:03.359Z,98268.00
2022-08-05T01:40:10.835Z,98255.78
2022-08-05T01:50:29.774Z,98249.97
2022-08-05T02:00:39.201Z,98248.22
2022-08-05T02:10:50.611Z,98242.97
2022-08-05T02:21:17.914Z,98244.59
2022-08-05T02:31:28.379Z,98230.81
2022-08-05T02:41:42.892Z,98217.66
2022-08-05T02:52:04.349Z,98218.03
2022-08-05T03:02:11.494Z,98223.50
2022-08-05T03:12:37.730Z,98217.97
2022-08-05T03:22:49.860Z,98210.25
2022-08-05T03:32:56.841Z,98202.72
2022-08-05T03:43:59.310Z,98208.16
2022-08-05T03:55:53.611Z,98216.94
2022-08-05T04:04:09.870Z,98217.72
2022-08-05T04:14:18.774Z,98219.09
2022-08-05T04:24:25.233Z,98219.28
2022-08-05T04:34:35.306Z,98212.13
2022-08-05T04:44:43.873Z,98216.22
2022-08-05T04:54:50.670Z,98215.22
2022-08-05T05:05:02.251Z,98207.06
2022-08-05T05:15:11.178Z,98204.59
2022-08-05T05:25:17.648Z,98206.94
2022-08-05T05:35:24.205Z,98201.25
2022-08-05T05:45:31.599Z,98218.34
2022-08-05T05:55:52.429Z,98219.09
2022-08-05T06:06:03.209Z,98225.31
2022-08-05T06:16:29.280Z,98221.28
2022-08-05T06:26:36.547Z,98222.91
2022-08-05T06:36:57.552Z,98222.91
2022-08-05T06:47:05.053Z,98227.59
2022-08-05T06:57:57.496Z,98238.56
2022-08-05T07:07:46.349Z,98238.97
2022-08-05T07:18:00.995Z,98232.84
2022-08-05T07:28:17.280Z,98236.31
2022-08-05T07:38:33.847Z,98245.53
2022-08-05T07:49:02.856Z,98247.72
2022-08-05T07:59:08.630Z,98251.00
2022-08-05T08:09:15.226Z,98242.06
2022-08-05T08:20:21.143Z,98242.78
2022-08-05T08:30:05.343Z,98257.69
2022-08-05T08:40:15.278Z,98255.87
2022-08-05T08:50:46.428Z,98249.72
2022-08-05T09:00:50.062Z,98247.87
2022-08-05T09:10:57.798Z,98255.87
2022-08-05T09:21:05.153Z,98244.47
2022-08-05T09:31:44.096Z,98238.91
2022-08-05T09:41:58.592Z,98217.41
2022-08-05T09:52:36.715Z,98217.16
2022-08-05T10:02:58.422Z,98210.28
2022-08-05T10:13:09.977Z,98210.16
2022-08-05T10:23:34.763Z,98196.19
2022-08-05T10:33:52.412Z,98192.03
2022-08-05T10:44:05.624Z,98181.75
2022-08-05T10:54:28.681Z,98180.22
2022-08-05T11:04:45.537Z,98164.97
2022-08-05T11:15:20.370Z,98170.91
2022-08-05T11:26:04.451Z,98172.41
2022-08-05T11:36:08.613Z,98162.91
2022-08-05T11:46:32.260Z,98146.47
2022-08-05T11:56:50.411Z,98177.19
2022-08-05T12:07:00.978Z,98165.56
2022-08-05T12:18:00.658Z,98161.38
2022-08-05T12:27:36.110Z,98150.81
2022-08-05T12:38:00.116Z,98149.84
2022-08-05T12:48:27.665Z,98140.72
2022-08-05T12:58:51.627Z,98117.06
2022-08-05T13:09:12.656Z,98124.13
2022-08-05T13:19:22.993Z,98113.72
2022-08-05T13:29:37.674Z,98114.06
2022-08-05T13:40:16.761Z,98106.78
2022-08-05T13:50:16.239Z,98099.62
2022-08-05T14:00:27.343Z,98097.25
2022-08-05T14:10:34.658Z,98101.75
2022-08-05T14:20:41.021Z,98092.00
2022-08-05T14:30:53.531Z,98089.09
2022-08-05T14:41:00.093Z,98082.72
2022-08-05T14:51:06.505Z,98065.41
2022-08-05T15:01:16.002Z,98059.09
2022-08-05T15:11:24.473Z,98067.25
2022-08-05T15:21:50.792Z,98051.78
2022-08-05T15:32:02.320Z,98050.59
2022-08-05T15:42:54.357Z,98038.78
2022-08-05T15:52:54.615Z,98040.28
2022-08-05T16:03:01.775Z,98036.88
2022-08-05T16:13:08.520Z,98039.28
2022-08-05T16:23:14.889Z,98035.69
2022-08-05T16:33:21.662Z,98026.44
2022-08-05T16:43:29.426Z,98022.53
2022-08-05T16:54:02.883Z,98025.78
2022-08-05T17:04:02.069Z,98024.41
2022-08-05T17:14:08.395Z,98019.25
2022-08-05T17:24:34.982Z,98027.25
2022-08-05T17:34:49.238Z,98029.75
2022-08-05T17:44:55.676Z,98029.53
2022-08-05T17:55:03.117Z,98036.13
2022-08-05T18:05:09.902Z,98029.81
2022-08-05T18:15:20.139Z,98048.00
2022-08-05T18:25:33.121Z,98051.41
2022-08-05T18:36:00.142Z,98054.19
2022-08-05T18:46:09.609Z,98055.84
2022-08-05T18:56:16.254Z,98064.94
2022-08-05T19:06:37.217Z,98067.06
2022-08-05T19:16:51.137Z,98053.91
2022-08-05T19:26:58.301Z,98060.34
2022-08-05T19:37:04.742Z,98068.72
2022-08-05T19:47:11.424Z,98079.78
2022-08-05T19:57:21.745Z,98072.56
2022-08-05T20:07:49.142Z,98068.00
2022-08-05T20:17:55.637Z,98070.69
2022-08-05T20:28:02.068Z,98066.75
2022-08-05T20:38:08.650Z,98065.09
2022-08-05T20:48:16.492Z,98064.94
2022-08-05T20:58:23.093Z,98071.75
2022-08-05T21:08:42.115Z,98063.81
2022-08-05T21:18:50.518Z,98070.47
2022-08-05T21:28:56.857Z,98078.59
2022-08-05T21:39:14.182Z,98084.06
2022-08-05T21:49:56.840Z,98085.72
2022-08-05T22:00:05.514Z,98077.16
2022-08-05T22:10:13.255Z,98086.38
2022-08-05T22:20:21.032Z,98090.38
2022-08-05T22:30:34.954Z,98087.84
2022-08-05T22:40:49.635Z,98085.00
2022-08-05T22:50:56.569Z,98082.38
2022-08-05T23:01:05.811Z,98089.00
2022-08-05T23:11:12.963Z,98077.72
2022-08-05T23:21:19.523Z,98069.81
2022-08-05T23:31:25.849Z,98067.13
2022-08-05T23:41:40.943Z,98071.91
2022-08-05T23:52:09.212Z,98069.12
